Time;durP1;ratioP1;P1;durP2;ratioP2;P2;SDS_P1;SDS_P2;PMS_P1;PMS_P2;Temp;Humidity;BMP_temperature;BMP_pressure;BME280_temperature;BME280_humidity;BME280_pressure;Samples;Min_cycle;Max_cycle;Signal;HPM_P1;HPM_P2
2022/12/04 01:34:24;;;;;;;24.60;13.93;;;;;;;2.47;74.74;99646.81;1087039;47;20038;-78
2022/12/04 01:35:25;;;;;;;22.80;14.40;;;;;;;2.55;74.63;99650.75;1087802;54;20267;-78
2022/12/04 01:36:30;;;;;;;25.15;14.77;;;;;;;2.61;74.44;99645.03;1087737;54;20030;-78
2022/12/04 01:37:32;;;;;;;21.80;14.07;;;;;;;2.73;74.42;99640.75;1087724;54;20038;-79
2022/12/04 01:38:38;;;;;;;20.92;13.93;;;;;;;2.80;74.39;99648.13;1087672;54;20641;-79
2022/12/04 01:39:39;;;;;;;21.17;14.40;;;;;;;2.84;74.33;99648.75;1087801;54;20671;-79
2022/12/04 01:40:46;;;;;;;21.55;14.60;;;;;;;2.91;74.17;99646.53;1087916;47;20097;-79
2022/12/04 01:41:50;;;;;;;20.17;12.82;;;;;;;2.95;73.89;99654.16;1087644;54;20069;-79
2022/12/04 01:42:51;;;;;;;19.77;12.30;;;;;;;3.02;73.71;99661.66;1093969;31;20688;-78
2022/12/04 01:44:17;;;;;;;21.02;13.73;;;;;;;2.93;73.32;99653.41;1087758;54;20030;-78
2022/12/04 01:45:43;;;;;;;22.02;14.48;;;;;;;2.96;73.49;99655.84;1084799;54;20069;-79
2022/12/04 01:46:48;;;;;;;19.35;13.02;;;;;;;3.04;73.44;99651.81;1085476;46;20570;-78
2022/12/04 01:47:54;;;;;;;20.88;13.40;;;;;;;3.07;73.23;99655.09;1085002;54;20042;-78
2022/12/04 01:48:59;;;;;;;19.55;13.25;;;;;;;3.07;73.59;99659.53;1085193;54;20041;-78
2022/12/04 01:50:04;;;;;;;21.17;13.88;;;;;;;3.05;73.41;99650.88;1085312;54;20094;-79
2022/12/04 01:51:12;;;;;;;20.48;12.93;;;;;;;3.11;73.21;99656.56;1084892;54;20045;-79
2022/12/04 01:52:18;;;;;;;19.88;13.85;;;;;;;3.10;72.89;99652.25;1084251;54;20169;-78
2022/12/04 01:53:22;;;;;;;18.05;12.10;;;;;;;3.11;73.24;99650.47;1084276;54;20045;-78
2022/12/04 01:54:28;;;;;;;20.73;13.13;;;;;;;3.13;72.84;99651.19;1084255;54;20050;-78
2022/12/04 01:55:33;;;;;;;18.80;12.35;;;;;;;3.13;73.21;99648.53;1084774;54;20086;-79
2022/12/04 01:56:40;;;;;;;20.10;13.43;;;;;;;3.16;72.83;99650.16;1084700;54;20597;-78
2022/12/04 01:57:45;;;;;;;22.02;14.57;;;;;;;3.16;72.98;99636.94;1085935;54;20042;-80
2022/12/04 01:58:51;;;;;;;18.92;12.55;;;;;;;3.13;73.15;99637.97;1086587;54;20037;-80
2022/12/04 02:00:01;;;;;;;19.90;13.18;;;;;;;3.17;73.02;99639.47;1086531;54;20046;-81
2022/12/04 02:01:05;;;;;;;19.80;12.65;;;;;;;3.22;72.62;99633.84;1086735;54;20117;-79
2022/12/04 02:02:12;;;;;;;21.08;14.05;;;;;;;3.13;72.48;99643.25;1086692;54;20042;-80
2022/12/04 02:03:14;;;;;;;21.52;14.38;;;;;;;3.14;72.57;99644.94;1086654;54;20082;-80
2022/12/04 02:04:18;;;;;;;21.45;14.70;;;;;;;3.02;72.73;99640.53;1087091;54;20124;-81
2022/12/04 02:05:22;;;;;;;21.30;14.68;;;;;;;2.94;73.07;99644.53;1086687;54;20069;-80
2022/12/04 02:06:27;;;;;;;19.58;13.00;;;;;;;2.99;73.19;99646.03;1086518;54;20057;-80
2022/12/04 02:07:29;;;;;;;18.98;12.63;;;;;;;3.07;73.14;99639.25;1086520;54;20054;-80
2022/12/04 02:08:34;;;;;;;20.15;13.77;;;;;;;3.11;72.79;99645.19;1086794;54;20073;-80
2022/12/04 02:09:38;;;;;;;24.33;15.63;;;;;;;3.16;72.57;99639.56;1087212;46;20090;-80
2022/12/04 02:10:52;;;;;;;21.88;14.32;;;;;;;3.12;72.50;99636.28;1087165;54;20080;-80
2022/12/04 02:12:01;;;;;;;20.00;13.15;;;;;;;3.18;72.54;99632.38;1087117;46;20050;-80
2022/12/04 02:13:10;;;;;;;17.42;11.05;;;;;;;3.16;72.50;99642.22;1086716;54;20042;-80
2022/12/04 02:14:26;;;;;;;19.05;12.48;;;;;;;3.18;72.57;99645.56;1086556;54;20054;-79
2022/12/04 02:15:35;;;;;;;20.67;12.63;;;;;;;3.26;72.40;99649.38;1086413;54;20638;-80
2022/12/04 02:16:46;;;;;;;18.35;11.90;;;;;;;3.24;72.62;99645.16;1086866;39;20507;-80
2022/12/04 02:17:58;;;;;;;17.55;11.90;;;;;;;3.20;72.33;99649.81;1087202;46;20670;-80
2022/12/04 02:19:17;;;;;;;16.63;11.13;;;;;;;3.28;72.28;99652.78;1087152;54;20042;-80
2022/12/04 02:20:30;;;;;;;18.65;12.02;;;;;;;3.30;71.94;99649.19;1087185;54;20042;-80
2022/12/04 02:21:39;;;;;;;20.05;12.50;;;;;;;3.21;71.59;99651.50;1086945;54;20138;-79
2022/12/04 02:23:00;;;;;;;19.50;12.73;;;;;;;3.18;72.16;99641.16;1087176;54;20035;-80
2022/12/04 02:24:24;;;;;;;21.42;12.98;;;;;;;3.03;72.37;99643.06;1087392;46;20074;-80
2022/12/04 02:25:32;;;;;;;21.23;13.88;;;;;;;2.97;72.65;99649.63;1086713;54;20046;-80
2022/12/04 02:26:46;;;;;;;18.00;12.43;;;;;;;2.99;72.98;99641.56;1087412;46;20098;-79
2022/12/04 02:28:01;;;;;;;21.92;13.65;;;;;;;2.96;72.67;99644.44;1087122;54;20038;-79
2022/12/04 02:29:10;;;;;;;17.80;12.25;;;;;;;3.00;72.83;99640.63;1087658;46;20038;-79
2022/12/04 02:30:13;;;;;;;18.15;11.48;;;;;;;3.08;72.80;99646.22;1087081;54;20069;-79
2022/12/04 02:31:23;;;;;;;19.67;13.00;;;;;;;3.16;72.61;99648.34;1086363;54;20038;-78
2022/12/04 02:32:32;;;;;;;19.00;11.77;;;;;;;3.18;72.10;99650.84;1086412;54;20038;-79
2022/12/04 02:33:43;;;;;;;21.65;13.82;;;;;;;3.15;72.54;99645.81;1086579;54;20065;-79
2022/12/04 02:34:55;;;;;;;17.40;12.02;;;;;;;3.20;72.49;99643.69;1085897;54;20046;-79
2022/12/04 02:36:06;;;;;;;16.45;11.43;;;;;;;3.18;72.12;99633.22;1086947;46;20041;-79
2022/12/04 02:37:12;;;;;;;18.65;11.30;;;;;;;3.26;72.49;99632.66;1085971;54;20054;-79
2022/12/04 02:38:22;;;;;;;18.48;12.32;;;;;;;3.21;72.24;99630.34;1087363;39;20523;-79
2022/12/04 02:39:30;;;;;;;18.40;12.18;;;;;;;3.14;72.34;99631.75;1087054;46;20069;-79
2022/12/04 02:40:45;;;;;;;20.13;13.07;;;;;;;3.06;72.78;99634.06;1087978;54;20591;-78
2022/12/04 02:41:53;;;;;;;18.20;12.20;;;;;;;3.15;72.80;99641.34;1089777;46;20045;-78
2022/12/04 02:43:04;;;;;;;17.67;11.77;;;;;;;3.18;72.80;99635.88;1088075;54;20018;-79
2022/12/04 02:44:11;;;;;;;17.15;11.18;;;;;;;3.18;72.38;99635.00;1089475;31;20617;-79
2022/12/04 02:45:20;;;;;;;18.60;11.85;;;;;;;3.14;72.51;99638.84;1087922;46;20026;-79
2022/12/04 02:46:30;;;;;;;19.45;12.13;;;;;;;3.04;72.85;99628.03;1088671;46;20042;-80
2022/12/04 02:47:35;;;;;;;19.90;12.65;;;;;;;3.05;73.17;99638.53;1088548;46;20053;-79
2022/12/04 02:48:43;;;;;;;17.73;11.65;;;;;;;3.08;72.90;99633.00;1087256;54;20045;-79
2022/12/04 02:49:49;;;;;;;17.27;11.55;;;;;;;3.15;72.83;99633.44;1086434;54;20065;-79
2022/12/04 02:50:57;;;;;;;20.80;12.90;;;;;;;3.09;72.92;99623.31;1086619;54;20057;-78
2022/12/04 02:52:00;;;;;;;18.30;12.23;;;;;;;3.06;73.27;99626.16;1087121;46;20061;-79
2022/12/04 02:53:10;;;;;;;19.25;13.13;;;;;;;3.08;72.74;99619.81;1086751;54;20038;-79
2022/12/04 02:54:16;;;;;;;18.35;11.70;;;;;;;3.12;72.91;99617.78;1086371;54;20054;-79
2022/12/04 02:55:25;;;;;;;18.20;11.70;;;;;;;3.11;72.72;99618.78;1086328;54;20057;-78
2022/12/04 02:56:31;;;;;;;18.77;12.32;;;;;;;3.01;73.32;99615.06;1086583;54;20046;-78
2022/12/04 02:57:39;;;;;;;19.50;12.77;;;;;;;2.99;73.32;99619.63;1086409;54;20038;-79
2022/12/04 02:58:48;;;;;;;17.27;12.07;;;;;;;2.98;73.35;99616.09;1086227;54;20054;-78
2022/12/04 02:59:55;;;;;;;17.95;11.32;;;;;;;3.11;72.99;99621.41;1087163;39;20440;-79
2022/12/04 03:00:59;;;;;;;19.33;12.70;;;;;;;3.19;72.88;99621.72;1086588;46;20050;-78
2022/12/04 03:02:09;;;;;;;18.98;11.63;;;;;;;3.22;72.56;99618.84;1086434;54;20110;-79
2022/12/04 03:03:15;;;;;;;17.63;11.57;;;;;;;3.19;72.75;99620.84;1086541;54;20599;-78
2022/12/04 03:04:23;;;;;;;18.13;11.95;;;;;;;3.18;72.86;99620.03;1086270;54;20042;-78
2022/12/04 03:05:33;;;;;;;17.90;11.43;;;;;;;3.12;73.16;99613.38;1086280;54;20073;-78
2022/12/04 03:06:40;;;;;;;19.60;12.38;;;;;;;3.10;73.26;99617.06;1086661;54;20033;-77
2022/12/04 03:07:46;;;;;;;19.58;12.35;;;;;;;3.09;73.07;99618.03;1087513;39;20495;-78
2022/12/04 03:08:54;;;;;;;20.27;12.00;;;;;;;3.05;73.33;99616.53;1086497;54;20130;-78
2022/12/04 03:10:02;;;;;;;20.50;12.00;;;;;;;3.08;73.25;99608.41;1086119;54;20098;-78
2022/12/04 03:11:07;;;;;;;16.27;11.48;;;;;;;3.16;72.99;99608.72;1086174;54;20042;-78
2022/12/04 03:12:14;;;;;;;20.52;12.55;;;;;;;3.16;73.11;99605.25;1086239;54;20098;-79
2022/12/04 03:13:22;;;;;;;18.63;11.95;;;;;;;3.18;73.05;99598.88;1086728;46;20034;-79
2022/12/04 03:14:30;;;;;;;17.83;10.88;;;;;;;3.22;73.02;99589.78;1086517;54;20054;-78
2022/12/04 03:15:39;;;;;;;17.08;10.82;;;;;;;3.26;72.98;99587.75;1086418;54;20054;-79
2022/12/04 03:16:42;;;;;;;18.33;10.90;;;;;;;3.24;72.72;99598.44;1086181;54;20042;-79
2022/12/04 03:17:52;;;;;;;17.48;11.40;;;;;;;3.24;73.08;99594.97;1086346;54;20042;-78
2022/12/04 03:18:58;;;;;;;19.50;12.48;;;;;;;3.21;73.20;99603.09;1086239;54;20045;-79
2022/12/04 03:20:08;;;;;;;18.45;12.23;;;;;;;3.23;73.10;99602.03;1086475;54;20094;-79
2022/12/04 03:21:13;;;;;;;18.42;12.05;;;;;;;3.18;73.18;99598.88;1086157;54;20038;-79
2022/12/04 03:22:22;;;;;;;19.27;12.40;;;;;;;3.17;73.32;99597.19;1086557;54;20045;-78
2022/12/04 03:23:31;;;;;;;18.13;11.65;;;;;;;3.15;73.18;99596.44;1086378;54;20072;-79
2022/12/04 03:24:39;;;;;;;18.65;11.68;;;;;;;3.14;73.44;99597.41;1086691;47;20046;-78
2022/12/04 03:25:56;;;;;;;17.02;11.32;;;;;;;3.14;73.58;99602.69;1086235;54;20054;-78
2022/12/04 03:27:05;;;;;;;17.98;11.50;;;;;;;3.21;73.49;99605.75;1086152;54;20088;-78
2022/12/04 03:28:13;;;;;;;17.30;11.65;;;;;;;3.23;73.34;99599.38;1086278;54;20070;-78
2022/12/04 03:29:21;;;;;;;18.85;11.90;;;;;;;3.22;73.38;99607.44;1086269;54;20061;-79
2022/12/04 03:30:35;;;;;;;18.70;12.00;;;;;;;3.18;73.27;99606.81;1087694;54;20034;-79
2022/12/04 03:31:46;;;;;;;17.10;11.35;;;;;;;3.23;73.50;99606.50;1087078;54;20060;-79
2022/12/04 03:32:50;;;;;;;18.52;11.45;;;;;;;3.28;73.29;99604.34;1087023;54;20077;-79
2022/12/04 03:33:57;;;;;;;17.88;12.10;;;;;;;3.28;72.97;99594.63;1088839;39;20510;-79
2022/12/04 03:35:04;;;;;;;18.50;10.75;;;;;;;3.32;73.22;99602.34;1086327;54;20057;-78
2022/12/04 03:36:15;;;;;;;16.90;10.43;;;;;;;3.38;72.94;99607.19;1086234;54;20044;-79
2022/12/04 03:37:23;;;;;;;17.15;11.00;;;;;;;3.40;72.84;99600.00;1086095;54;20050;-77
2022/12/04 03:38:36;;;;;;;16.50;10.13;;;;;;;3.42;72.67;99601.59;1086155;54;20039;-78
2022/12/04 03:39:45;;;;;;;14.90;9.25;;;;;;;3.45;72.49;99595.22;1087922;54;20053;-79
2022/12/04 03:40:59;;;;;;;15.00;9.75;;;;;;;3.43;72.74;99591.84;1088414;39;20609;-78
2022/12/04 03:42:04;;;;;;;16.98;11.20;;;;;;;3.39;72.69;99587.75;1089082;46;20045;-79
2022/12/04 03:43:18;;;;;;;18.35;10.90;;;;;;;3.41;72.68;99588.47;1087486;54;20034;-79
2022/12/04 03:44:24;;;;;;;19.05;11.55;;;;;;;3.35;72.91;99594.19;1088150;46;20069;-78
2022/12/04 03:45:38;;;;;;;17.58;11.57;;;;;;;3.30;73.08;99589.25;1086713;54;20042;-78
2022/12/04 03:46:47;;;;;;;19.42;11.48;;;;;;;3.24;73.28;99587.03;1085551;54;20080;-78
2022/12/04 03:47:57;;;;;;;17.95;12.07;;;;;;;3.20;73.53;99590.84;1085098;46;20049;-76
2022/12/04 03:49:07;;;;;;;18.90;12.50;;;;;;;3.15;73.35;99593.81;1085186;54;20072;-77
2022/12/04 03:50:18;;;;;;;19.80;12.05;;;;;;;3.20;73.64;99607.56;1085349;47;20042;-77
2022/12/04 03:51:25;;;;;;;20.45;12.13;;;;;;;3.25;73.41;99586.94;1084824;54;20134;-77
2022/12/04 03:52:35;;;;;;;18.98;12.20;;;;;;;3.21;73.39;99587.25;1085162;54;20126;-77
2022/12/04 03:53:42;;;;;;;18.30;11.77;;;;;;;3.28;73.22;99592.00;1084751;54;20057;-77
2022/12/04 03:54:51;;;;;;;18.85;10.82;;;;;;;3.24;73.05;99593.16;1085575;39;20460;-76
2022/12/04 03:55:58;;;;;;;18.73;11.75;;;;;;;3.18;73.09;99585.69;1085146;54;21010;-77
2022/12/04 03:57:07;;;;;;;18.15;12.02;;;;;;;3.23;73.64;99586.19;1085855;31;20584;-76
2022/12/04 03:58:15;;;;;;;17.23;11.52;;;;;;;3.27;73.41;99592.94;1085007;54;20098;-77
2022/12/04 03:59:24;;;;;;;16.45;10.63;;;;;;;3.27;73.30;99592.94;1084815;54;20589;-77
2022/12/04 04:00:29;;;;;;;16.02;9.60;;;;;;;3.37;73.19;99593.13;1084985;54;20106;-77
2022/12/04 04:01:39;;;;;;;17.67;11.93;;;;;;;3.26;73.23;99585.97;1084670;54;20039;-77
2022/12/04 04:02:46;;;;;;;18.95;11.68;;;;;;;3.26;73.24;99585.13;1084921;54;20046;-77
2022/12/04 04:03:53;;;;;;;17.38;10.85;;;;;;;3.26;73.19;99580.69;1084749;54;20034;-77
2022/12/04 04:04:57;;;;;;;18.13;11.98;;;;;;;3.27;73.14;99577.09;1084904;54;20045;-77
2022/12/04 04:06:05;;;;;;;19.35;11.55;;;;;;;3.24;73.41;99574.66;1085029;47;20042;-77
2022/12/04 04:07:11;;;;;;;17.70;12.00;;;;;;;3.23;73.33;99572.97;1085096;54;20061;-77
2022/12/04 04:08:32;;;;;;;18.88;12.02;;;;;;;3.16;73.54;99563.81;1085703;54;20616;-77
2022/12/04 04:09:37;;;;;;;;;;;;;;;3.10;73.73;99574.81;1085413;54;20054;-77
2022/12/04 04:10:42;;;;;;;21.23;12.13;;;;;;;3.12;73.76;99564.97;1085169;54;19954;-77
2022/12/04 04:11:47;;;;;;;18.95;11.65;;;;;;;3.14;73.88;99570.97;1085037;54;20121;-77
2022/12/04 04:25:03;;;;;;;19.13;12.20;;;;;;;3.18;74.17;99592.75;1085068;54;20038;-77
2022/12/04 04:26:07;;;;;;;17.80;11.43;;;;;;;3.17;74.19;99589.28;1084644;54;20251;-77
2022/12/04 04:27:12;;;;;;;18.52;12.07;;;;;;;3.15;74.15;99599.09;1084747;54;20041;-77
2022/12/04 04:28:28;;;;;;;20.67;11.88;;;;;;;3.14;74.07;99591.28;1084756;54;20069;-77
2022/12/04 04:29:33;;;;;;;19.75;11.88;;;;;;;3.15;74.39;99599.09;1084777;54;20038;-77
2022/12/04 04:30:38;;;;;;;19.92;12.45;;;;;;;3.12;74.11;99594.00;1084866;54;20823;-77
2022/12/04 04:31:45;;;;;;;17.77;11.85;;;;;;;3.22;73.89;99594.22;1084837;54;20044;-77
2022/12/04 04:32:57;;;;;;;16.67;10.95;;;;;;;3.26;73.94;99593.03;1085036;54;20047;-77
2022/12/04 04:34:04;;;;;;;18.90;10.95;;;;;;;3.28;73.65;99591.13;1085011;54;20038;-77
2022/12/04 04:35:16;;;;;;;18.65;12.18;;;;;;;3.28;73.80;99594.63;1088499;31;20209;-79
2022/12/04 04:36:26;;;;;;;20.23;11.93;;;;;;;3.20;74.13;99594.34;1085177;54;20053;-77
2022/12/04 04:37:38;;;;;;;15.88;10.55;;;;;;;3.11;74.17;99597.63;1084910;54;20035;-77
2022/12/04 04:38:44;;;;;;;19.45;12.20;;;;;;;3.06;74.70;99597.09;1084783;54;20054;-77
2022/12/04 04:39:58;;;;;;;18.08;11.55;;;;;;;3.11;74.40;99603.75;1086417;39;20417;-77
2022/12/04 04:41:08;;;;;;;22.17;14.00;;;;;;;3.08;74.43;99603.13;1084708;54;21768;-77
2022/12/04 04:42:19;;;;;;;20.48;12.32;;;;;;;3.09;74.34;99599.53;1085018;54;20085;-77
2022/12/04 04:43:25;;;;;;;19.17;11.88;;;;;;;3.14;74.29;99607.97;1084466;54;20050;-77
2022/12/04 04:44:36;;;;;;;18.20;11.50;;;;;;;3.17;74.36;99607.75;1086142;39;20508;-77
2022/12/04 04:45:44;;;;;;;;;;;;;;;3.05;74.47;99613.91;1085295;54;20592;-76
2022/12/04 04:46:51;;;;;;;19.30;11.23;;;;;;;3.09;74.37;99610.09;1085435;54;19961;-77
2022/12/04 04:47:59;;;;;;;18.50;11.60;;;;;;;3.17;74.28;99615.69;1085635;54;20048;-78
2022/12/04 04:49:05;;;;;;;18.88;11.90;;;;;;;3.12;74.56;99612.50;1086083;54;20069;-77
2022/12/04 04:50:10;;;;;;;22.15;11.93;;;;;;;3.12;74.39;99616.00;1086329;47;20069;-77
2022/12/04 04:51:15;;;;;;;20.27;12.07;;;;;;;3.15;74.56;99609.66;1085923;54;20042;-78
2022/12/04 04:52:20;;;;;;;19.27;11.45;;;;;;;3.23;74.23;99612.59;1087076;47;20102;-77
2022/12/04 04:53:28;;;;;;;17.45;11.48;;;;;;;3.31;74.07;99609.44;1085758;47;20046;-78
2022/12/04 04:54:33;;;;;;;16.92;11.30;;;;;;;3.36;73.87;99609.94;1085140;54;20088;-79
2022/12/04 04:55:38;;;;;;;20.02;11.80;;;;;;;3.30;73.95;99606.91;1085495;54;20030;-77
2022/12/04 04:56:40;;;;;;;18.60;12.05;;;;;;;3.25;74.14;99608.06;1085420;54;20062;-76
2022/12/04 04:57:45;;;;;;;19.35;11.88;;;;;;;3.31;74.02;99603.31;1085430;54;20065;-78
2022/12/04 04:58:46;;;;;;;16.75;10.65;;;;;;;3.37;73.80;99594.94;1085617;54;20069;-77
2022/12/04 04:59:50;;;;;;;18.13;11.55;;;;;;;3.37;73.71;99598.41;1085425;54;20062;-77
2022/12/04 05:00:59;;;;;;;17.45;11.10;;;;;;;3.35;73.80;99604.75;1086381;39;20141;-77
2022/12/04 05:02:03;;;;;;;18.35;11.38;;;;;;;3.35;73.94;99594.19;1085414;54;20157;-77
2022/12/04 05:03:05;;;;;;;16.52;11.18;;;;;;;3.37;74.01;99608.16;1085479;54;20050;-77
2022/12/04 05:04:10;;;;;;;19.33;11.77;;;;;;;3.38;73.97;99609.84;1085325;54;20043;-77
2022/12/04 05:05:12;;;;;;;16.83;11.02;;;;;;;3.40;73.97;99602.66;1085876;47;20210;-78
2022/12/04 05:06:16;;;;;;;18.13;11.82;;;;;;;3.39;73.54;99608.88;1085617;47;20035;-77
2022/12/04 05:07:18;;;;;;;18.65;11.52;;;;;;;3.41;73.52;99604.31;1085252;54;20118;-77
2022/12/04 05:08:22;;;;;;;17.65;11.88;;;;;;;3.38;73.49;99602.75;1085248;54;20543;-77
2022/12/04 05:09:25;;;;;;;18.30;11.48;;;;;;;3.33;73.59;99610.16;1085583;47;20058;-77
2022/12/04 05:10:29;;;;;;;19.58;12.70;;;;;;;3.30;73.89;99606.91;1085204;54;20045;-77
2022/12/04 05:11:30;;;;;;;15.23;10.77;;;;;;;3.38;73.74;99607.19;1085384;54;20106;-77
2022/12/04 05:12:34;;;;;;;17.17;11.10;;;;;;;3.38;73.89;99604.56;1085737;54;20073;-77
2022/12/04 05:13:36;;;;;;;19.13;12.15;;;;;;;3.35;73.80;99610.06;1085972;39;20843;-77
2022/12/04 05:14:40;;;;;;;18.25;11.88;;;;;;;3.24;73.97;99611.66;1085982;54;20044;-77
2022/12/04 05:15:42;;;;;;;19.65;12.48;;;;;;;3.27;73.97;99618.50;1086018;54;20069;-78
2022/12/04 05:16:48;;;;;;;18.70;11.20;;;;;;;3.33;74.02;99618.09;1085532;54;20038;-77
2022/12/04 05:17:50;;;;;;;16.38;10.70;;;;;;;3.35;73.96;99615.34;1086035;54;20121;-78
2022/12/04 05:20:13;;;;;;;20.25;11.43;;;;;;;3.27;73.88;99614.09;1085646;54;20068;-77
2022/12/04 05:21:15;;;;;;;18.13;12.05;;;;;;;3.27;73.99;99611.44;1085718;54;20058;-79
2022/12/04 05:22:16;;;;;;;15.45;10.35;;;;;;;3.34;73.88;99616.28;1085997;54;20039;-77
2022/12/04 05:23:21;;;;;;;16.70;11.82;;;;;;;3.33;73.74;99614.59;1085664;54;20666;-77
2022/12/04 05:24:24;;;;;;;17.20;10.95;;;;;;;3.32;74.03;99618.19;1085970;54;20043;-76
2022/12/04 05:25:29;;;;;;;18.20;10.88;;;;;;;3.37;73.61;99618.72;1085559;54;20038;-77
2022/12/04 05:26:30;;;;;;;17.60;11.57;;;;;;;3.32;73.72;99621.69;1085872;54;20054;-77
2022/12/04 05:27:35;;;;;;;19.65;11.75;;;;;;;3.30;73.95;99617.47;1085836;54;20038;-77
2022/12/04 05:28:38;;;;;;;19.35;11.52;;;;;;;3.32;73.84;99610.25;1085904;54;20055;-77
2022/12/04 05:29:42;;;;;;;18.73;11.32;;;;;;;3.31;73.70;99620.00;1085937;54;20039;-77
2022/12/04 05:30:44;;;;;;;18.50;11.00;;;;;;;3.39;73.71;99616.81;1085917;54;20096;-77
2022/12/04 05:31:51;;;;;;;16.20;10.82;;;;;;;3.42;73.32;99613.94;1085772;54;20069;-77
2022/12/04 05:32:55;;;;;;;17.15;10.55;;;;;;;3.43;73.41;99620.91;1085953;54;20050;-77
2022/12/04 05:33:57;;;;;;;18.77;10.93;;;;;;;3.39;73.45;99604.44;1085976;54;20038;-77
2022/12/04 05:35:01;;;;;;;18.63;11.48;;;;;;;3.27;74.00;99608.81;1086037;54;20038;-78
2022/12/04 05:36:05;;;;;;;17.85;11.40;;;;;;;3.23;74.29;99612.59;1085905;39;20436;-77
2022/12/04 05:37:09;;;;;;;20.38;11.77;;;;;;;3.15;74.52;99611.47;1086450;54;20042;-78
2022/12/04 05:38:11;;;;;;;18.83;12.50;;;;;;;3.12;74.40;99617.78;1086927;54;20042;-78
2022/12/04 05:39:16;;;;;;;21.23;12.40;;;;;;;3.05;74.89;99614.75;1087234;54;20034;-78
2022/12/04 05:40:17;;;;;;;20.52;12.07;;;;;;;3.05;74.97;99611.25;1086530;54;20584;-78
2022/12/04 05:41:21;;;;;;;22.45;12.68;;;;;;;3.01;75.11;99617.72;1087128;46;20057;-78
2022/12/04 05:42:23;;;;;;;17.63;11.27;;;;;;;3.04;75.22;99617.47;1086613;54;20053;-79
2022/12/04 05:43:34;;;;;;;18.20;11.35;;;;;;;3.16;75.03;99619.28;1086447;54;20042;-79
2022/12/04 05:44:36;;;;;;;16.85;11.30;;;;;;;3.24;74.60;99619.56;1086367;54;20050;-78
2022/12/04 05:45:40;;;;;;;18.42;12.38;;;;;;;3.27;74.33;99605.31;1086392;54;20038;-78
2022/12/04 05:46:41;;;;;;;19.15;11.77;;;;;;;3.20;74.29;99617.25;1086387;54;20098;-79
2022/12/04 05:47:48;;;;;;;20.50;12.00;;;;;;;3.21;74.45;99608.38;1086461;54;20030;-77
2022/12/04 05:48:50;;;;;;;20.40;12.52;;;;;;;3.18;74.75;99605.94;1086595;54;20081;-78
2022/12/04 05:49:54;;;;;;;20.60;13.02;;;;;;;3.21;74.64;99611.84;1086667;46;20033;-78
2022/12/04 05:50:55;;;;;;;26.42;16.75;;;;;;;3.23;74.80;99609.97;1086508;54;20045;-78
2022/12/04 05:52:00;;;;;;;21.88;13.82;;;;;;;3.18;74.69;99614.75;1086451;54;20042;-79
2022/12/04 05:53:02;;;;;;;20.77;12.25;;;;;;;3.24;74.38;99609.00;1086703;54;20065;-79
2022/12/04 05:54:06;;;;;;;19.73;12.93;;;;;;;3.30;74.39;99606.91;1086637;54;20038;-78
2022/12/04 05:55:08;;;;;;;19.48;11.65;;;;;;;3.32;74.42;99610.25;1086671;54;20034;-78
2022/12/04 05:56:13;;;;;;;17.50;10.90;;;;;;;3.33;74.08;99611.94;1086558;54;20627;-78
2022/12/04 05:57:17;;;;;;;17.05;11.02;;;;;;;3.39;74.18;99611.53;1086507;54;20223;-78
2022/12/04 05:58:18;;;;;;;19.08;12.02;;;;;;;3.35;74.12;99602.13;1086527;54;20078;-80
2022/12/04 05:59:24;;;;;;;18.15;11.82;;;;;;;3.37;74.17;99608.16;1086555;54;20043;-78
2022/12/04 06:00:25;;;;;;;18.98;11.50;;;;;;;3.37;74.02;99613.44;1088587;39;20834;-78
2022/12/04 06:01:30;;;;;;;16.95;10.73;;;;;;;3.37;74.21;99606.34;1086465;54;20031;-79
2022/12/04 06:02:35;;;;;;;18.00;11.60;;;;;;;3.39;73.88;99603.59;1086381;54;20102;-78
2022/12/04 06:03:40;;;;;;;18.13;11.57;;;;;;;3.33;74.23;99604.03;1087349;31;20519;-79
2022/12/04 06:04:44;;;;;;;16.95;11.15;;;;;;;3.34;74.35;99600.44;1086615;54;20027;-78
2022/12/04 06:05:45;;;;;;;19.60;12.80;;;;;;;3.34;74.23;99605.72;1086431;54;20038;-78
2022/12/04 06:06:50;;;;;;;21.02;12.80;;;;;;;3.28;74.30;99596.44;1086271;54;20034;-78
2022/12/04 06:07:51;;;;;;;18.60;12.25;;;;;;;3.27;74.55;99597.38;1086773;54;20054;-79
2022/12/04 06:08:57;;;;;;;18.60;11.60;;;;;;;3.28;74.49;99599.94;1086408;54;20043;-78
2022/12/04 06:09:59;;;;;;;17.65;11.55;;;;;;;3.26;74.49;99596.53;1086470;54;20046;-78
2022/12/04 06:11:03;;;;;;;19.25;12.60;;;;;;;3.23;74.75;99604.69;1086632;54;20034;-78
2022/12/04 06:12:05;;;;;;;18.75;11.52;;;;;;;3.31;74.33;99606.78;1087269;46;20081;-78
2022/12/04 06:13:10;;;;;;;17.25;11.88;;;;;;;3.34;74.35;99597.78;1086275;54;20133;-77
2022/12/04 06:14:13;;;;;;;19.70;12.63;;;;;;;3.21;74.69;99596.00;1090058;31;20556;-78
2022/12/04 06:15:19;;;;;;;19.48;12.52;;;;;;;3.17;74.73;99602.47;1086461;54;20045;-78
2022/12/04 06:16:22;;;;;;;18.83;12.10;;;;;;;3.12;74.86;99599.28;1086684;54;20046;-79
2022/12/04 06:17:27;;;;;;;16.73;11.90;;;;;;;3.04;75.04;99601.63;1086614;39;20453;-79
2022/12/04 06:18:28;;;;;;;20.67;13.18;;;;;;;3.05;75.26;99605.97;1086553;54;20065;-79
2022/12/04 06:19:35;;;;;;;19.60;12.52;;;;;;;3.13;75.24;99611.56;1086472;54;20045;-79
2022/12/04 06:20:37;;;;;;;17.98;11.50;;;;;;;3.06;75.07;99605.03;1086938;54;20053;-79
2022/12/04 06:21:45;;;;;;;20.08;13.05;;;;;;;3.11;74.89;99608.19;1086441;54;20042;-78
2022/12/04 06:22:47;;;;;;;18.10;11.98;;;;;;;3.09;75.01;99610.09;1086273;54;20046;-77
2022/12/04 06:23:52;;;;;;;21.13;12.18;;;;;;;3.05;75.26;99613.91;1086592;54;20042;-79
2022/12/04 06:24:53;;;;;;;17.52;11.80;;;;;;;3.07;75.21;99612.00;1089279;31;20497;-78
2022/12/04 06:25:58;;;;;;;20.27;13.30;;;;;;;3.03;75.39;99610.50;1086532;54;20556;-79
2022/12/04 06:26:59;;;;;;;18.48;11.45;;;;;;;2.99;75.44;99614.34;1086232;54;20038;-79
2022/12/04 06:28:03;;;;;;;17.58;11.68;;;;;;;2.99;75.47;99611.69;1086540;54;20035;-79
2022/12/04 06:29:10;;;;;;;21.02;13.07;;;;;;;3.05;75.33;99608.63;1087509;39;20909;-79
2022/12/04 06:30:16;;;;;;;18.98;11.90;;;;;;;3.03;75.23;99613.16;1086620;54;20050;-78
2022/12/04 06:31:21;;;;;;;18.52;12.02;;;;;;;3.07;75.30;99609.34;1086482;54;20068;-79
2022/12/04 06:32:27;;;;;;;19.70;12.07;;;;;;;3.07;75.20;99607.53;1086490;54;20037;-78
2022/12/04 06:33:32;;;;;;;21.38;12.40;;;;;;;3.07;75.22;99615.47;1086873;54;20061;-79
2022/12/04 06:34:43;;;;;;;20.63;12.18;;;;;;;3.07;75.07;99607.53;1086593;54;20027;-78
2022/12/04 06:35:46;;;;;;;17.00;11.48;;;;;;;3.12;75.20;99609.88;1086505;54;20038;-78
2022/12/04 06:36:52;;;;;;;17.13;11.20;;;;;;;3.12;75.41;99608.09;1085920;54;20049;-78
2022/12/04 06:37:55;;;;;;;18.20;12.40;;;;;;;3.13;75.06;99606.28;1086299;54;20042;-79
2022/12/04 06:39:02;;;;;;;17.58;11.63;;;;;;;3.14;75.07;99605.31;1086427;54;20030;-79
2022/12/04 06:40:06;;;;;;;19.08;12.45;;;;;;;3.08;75.21;99601.31;1086722;54;20083;-78
2022/12/04 06:41:19;;;;;;;19.55;11.82;;;;;;;3.15;75.22;99609.66;1086310;54;20042;-78
2022/12/04 06:42:30;;;;;;;17.77;11.32;;;;;;;3.22;75.05;99605.63;1086283;54;20048;-78
2022/12/04 06:43:36;;;;;;;19.38;12.32;;;;;;;3.18;74.85;99605.94;1086343;54;20054;-79
2022/12/04 06:44:41;;;;;;;18.10;11.48;;;;;;;3.16;75.02;99611.34;1087315;54;20058;-79
2022/12/04 06:45:47;;;;;;;17.02;11.00;;;;;;;3.18;74.88;99604.16;1089315;39;20471;-77
2022/12/04 06:46:51;;;;;;;18.13;11.32;;;;;;;3.16;74.96;99600.78;1086382;54;20046;-77
2022/12/04 06:47:57;;;;;;;16.95;11.45;;;;;;;3.15;75.11;99600.91;1086449;54;20051;-78
2022/12/04 06:49:04;;;;;;;20.15;12.45;;;;;;;3.17;74.92;99599.84;1086596;54;20038;-78
2022/12/04 06:50:14;;;;;;;21.25;11.90;;;;;;;3.14;75.03;99597.41;1086600;54;20061;-78
2022/12/04 06:51:19;;;;;;;18.73;11.50;;;;;;;3.10;75.26;99599.41;1086757;54;20045;-79
2022/12/04 06:52:23;;;;;;;19.05;11.52;;;;;;;3.10;75.41;99604.69;1086577;54;20552;-78
2022/12/04 06:53:26;;;;;;;18.83;12.25;;;;;;;3.16;75.23;99599.97;1086565;54;20685;-78
2022/12/04 06:54:30;;;;;;;18.30;11.82;;;;;;;3.20;75.20;99601.41;1086598;54;20042;-79
2022/12/04 06:55:32;;;;;;;18.38;10.98;;;;;;;3.27;74.67;99597.38;1086499;54;20077;-78
2022/12/04 06:56:36;;;;;;;18.80;11.82;;;;;;;3.27;74.74;99603.53;1086400;54;20038;-78
2022/12/04 06:57:37;;;;;;;18.33;12.00;;;;;;;3.25;74.74;99600.13;1086475;54;20065;-81